createdAt,value
2019-01-28T00:02:49.805Z,97392.74
2019-01-28T00:07:55.419Z,97401.42
2019-01-28T00:13:03.638Z,97404.58
2019-01-28T00:18:10.480Z,97418.44
2019-01-28T00:23:18.522Z,97420.59
2019-01-28T00:28:24.006Z,97428.26
2019-01-28T00:33:29.763Z,97432.20
2019-01-28T00:38:35.640Z,97444.21
2019-01-28T00:43:41.032Z,97442.58
2019-01-28T00:48:47.174Z,97459.43
2019-01-28T00:53:55.044Z,97473.38
2019-01-28T00:59:00.255Z,97488.09
2019-01-28T01:04:05.792Z,97494.92
2019-01-28T01:09:11.326Z,97521.09
2019-01-28T01:14:17.539Z,97536.45
2019-01-28T01:19:24.357Z,97547.95
2019-01-28T01:24:29.643Z,97558.98
2019-01-28T01:29:35.911Z,97574.65
2019-01-28T01:34:43.273Z,97591.34
2019-01-28T01:39:48.684Z,97594.84
2019-01-28T01:44:56.613Z,97607.27
2019-01-28T01:50:01.809Z,97611.30
2019-01-28T01:55:08.507Z,97619.48
2019-01-28T02:00:16.450Z,97622.11
2019-01-28T02:05:21.881Z,97623.67
2019-01-28T02:10:27.041Z,97629.03
2019-01-28T02:15:32.008Z,97643.76
2019-01-28T02:20:36.964Z,97645.44
2019-01-28T02:25:41.936Z,97637.81
2019-01-28T02:30:46.966Z,97649.33
2019-01-28T02:35:52.516Z,97639.94
2019-01-28T02:40:57.527Z,97638.23
2019-01-28T02:46:02.579Z,97653.20
2019-01-28T02:51:07.662Z,97658.12
2019-01-28T02:56:12.685Z,97663.50
2019-01-28T03:01:17.717Z,97659.31
2019-01-28T03:06:23.001Z,97664.69
2019-01-28T03:11:28.298Z,97660.05
2019-01-28T03:16:33.572Z,97664.16
2019-01-28T03:21:38.838Z,97677.94
2019-01-28T03:26:43.884Z,97688.67
2019-01-28T03:31:48.922Z,97696.49
2019-01-28T03:36:54.038Z,97709.01
2019-01-28T03:41:59.103Z,97716.00
2019-01-28T03:47:05.360Z,97722.42
2019-01-28T03:52:16.006Z,97723.63
2019-01-28T03:57:21.059Z,97717.25
2019-01-28T04:02:26.155Z,97713.06
2019-01-28T04:07:31.139Z,97727.41
2019-01-28T04:12:36.205Z,97720.77
2019-01-28T04:17:41.615Z,97731.51
2019-01-28T04:22:46.614Z,97734.36
2019-01-28T04:27:51.686Z,97731.16
2019-01-28T04:32:56.830Z,97734.73
2019-01-28T04:38:01.831Z,97733.94
2019-01-28T04:43:07.001Z,97725.66
2019-01-28T04:48:12.508Z,97732.02
2019-01-28T04:53:17.726Z,97731.53
2019-01-28T04:58:23.742Z,97720.77
2019-01-28T05:03:28.859Z,97720.58
2019-01-28T05:08:34.399Z,97720.58
2019-01-28T05:13:39.453Z,97720.58
2019-01-28T05:18:44.584Z,97731.52
2019-01-28T05:23:49.719Z,97722.25
2019-01-28T05:28:54.853Z,97713.07
2019-01-28T05:33:59.883Z,97714.53
2019-01-28T05:39:08.227Z,97724.72
2019-01-28T05:44:13.460Z,97709.23
2019-01-28T05:49:19.083Z,97710.40
2019-01-28T05:54:24.587Z,97713.52
2019-01-28T05:59:30.149Z,97717.09
2019-01-28T06:04:37.321Z,97721.48
2019-01-28T06:09:43.035Z,97712.06
2019-01-28T06:14:48.497Z,97722.16
2019-01-28T06:19:53.751Z,97726.48
2019-01-28T06:24:59.019Z,97730.41
2019-01-28T06:30:04.899Z,97733.44
2019-01-28T06:35:10.653Z,97731.38
2019-01-28T06:40:18.415Z,97734.30
2019-01-28T06:45:24.028Z,97732.54
2019-01-28T06:50:29.128Z,97732.64
2019-01-28T06:55:34.248Z,97733.95
2019-01-28T07:00:39.302Z,97727.34
2019-01-28T07:05:44.987Z,97725.22
2019-01-28T07:10:50.253Z,97725.94
2019-01-28T07:15:55.401Z,97725.72
2019-01-28T07:21:00.815Z,97726.23
2019-01-28T07:26:05.903Z,97734.59
2019-01-28T07:31:11.525Z,97742.61
2019-01-28T07:36:16.502Z,97755.79
2019-01-28T07:41:21.546Z,97752.45
2019-01-28T07:46:26.814Z,97742.21
2019-01-28T07:51:32.349Z,97738.23
2019-01-28T07:56:37.629Z,97741.05
2019-01-28T08:01:42.706Z,97737.92
2019-01-28T08:06:47.887Z,97733.34
2019-01-28T08:11:53.302Z,97726.56
2019-01-28T08:16:58.408Z,97723.83
2019-01-28T08:22:03.613Z,97729.22
2019-01-28T08:27:08.761Z,97726.59
2019-01-28T08:32:14.249Z,97721.00
2019-01-28T08:37:19.847Z,97711.30
2019-01-28T08:42:25.765Z,97710.69
2019-01-28T08:47:31.910Z,97702.82
2019-01-28T08:52:37.045Z,97699.77
2019-01-28T08:57:45.725Z,97702.15
2019-01-28T09:02:52.163Z,97692.66
2019-01-28T09:07:57.455Z,97708.72
2019-01-28T09:13:02.970Z,97702.97
2019-01-28T09:18:10.528Z,97703.03
2019-01-28T09:23:15.772Z,97699.15
2019-01-28T09:28:21.013Z,97694.91
2019-01-28T09:33:26.257Z,97697.34
2019-01-28T09:38:31.744Z,97696.58
2019-01-28T09:43:38.712Z,97685.95
2019-01-28T09:48:44.199Z,97687.81
2019-01-28T09:53:49.713Z,97693.46
2019-01-28T09:58:54.941Z,97691.13
2019-01-28T10:04:00.297Z,97685.10
2019-01-28T10:09:10.260Z,97686.56
2019-01-28T10:14:15.636Z,97680.19
2019-01-28T10:19:21.341Z,97682.20
2019-01-28T10:24:26.579Z,97687.46
2019-01-28T10:29:33.357Z,97692.48
2019-01-28T10:34:38.783Z,97693.06
2019-01-28T10:39:43.998Z,97691.13
2019-01-28T10:44:49.653Z,97696.61
2019-01-28T10:49:55.003Z,97685.50
2019-01-28T10:55:00.223Z,97678.27
2019-01-28T11:00:11.562Z,97687.27
2019-01-28T11:05:16.763Z,97679.59
2019-01-28T11:10:22.324Z,97680.91
2019-01-28T11:15:28.509Z,97682.67
2019-01-28T11:20:34.788Z,97667.70
2019-01-28T11:25:40.165Z,97669.25
2019-01-28T11:30:50.596Z,97663.55
2019-01-28T11:36:04.761Z,97662.72
2019-01-28T11:41:03.833Z,97657.84
2019-01-28T11:46:09.390Z,97655.59
2019-01-28T11:51:17.804Z,97652.41
2019-01-28T11:56:23.309Z,97643.20
2019-01-28T12:01:30.927Z,97639.57
2019-01-28T12:06:36.113Z,97651.19
2019-01-28T12:11:41.452Z,97650.27
2019-01-28T12:16:46.642Z,97648.55
2019-01-28T12:21:51.965Z,97645.91
2019-01-28T12:26:57.221Z,97651.73
2019-01-28T12:32:02.769Z,97655.28
2019-01-28T12:37:07.856Z,97659.19
2019-01-28T12:42:13.235Z,97660.74
2019-01-28T12:47:18.684Z,97656.78
2019-01-28T12:52:25.587Z,97651.83
2019-01-28T12:57:32.982Z,97652.38
2019-01-28T13:02:40.385Z,97653.78
2019-01-28T13:07:46.121Z,97652.69
2019-01-28T13:12:54.862Z,97654.08
2019-01-28T13:18:19.334Z,97652.14
2019-01-28T13:23:28.217Z,97660.61
2019-01-28T13:28:38.792Z,97669.45
2019-01-28T13:33:44.420Z,97677.70
2019-01-28T13:38:50.545Z,97685.63
2019-01-28T13:43:56.062Z,97682.72
2019-01-28T13:49:06.316Z,97689.50
2019-01-28T13:54:12.679Z,97684.22
2019-01-28T13:59:17.985Z,97688.19
2019-01-28T14:04:23.340Z,97689.27
2019-01-28T14:09:28.476Z,97693.78
2019-01-28T14:14:33.692Z,97689.50
2019-01-28T14:19:46.276Z,97694.84
2019-01-28T14:24:47.359Z,97698.27
2019-01-28T14:30:05.723Z,97693.45
2019-01-28T14:35:12.701Z,97693.45
2019-01-28T14:40:21.729Z,97694.27
2019-01-28T14:45:26.951Z,97703.64
2019-01-28T14:50:38.614Z,97706.39
2019-01-28T14:55:44.617Z,97703.46
2019-01-28T15:00:54.980Z,97700.13
2019-01-28T15:06:05.561Z,97697.56
2019-01-28T15:11:11.722Z,97705.91
2019-01-28T15:16:17.057Z,97705.14
2019-01-28T15:21:22.240Z,97704.84
2019-01-28T15:26:31.470Z,97701.02
2019-01-28T15:31:36.765Z,97713.39
2019-01-28T15:36:42.156Z,97714.20
2019-01-28T15:41:47.424Z,97710.63
2019-01-28T15:46:57.759Z,97710.39
2019-01-28T15:52:03.491Z,97719.59
2019-01-28T15:57:08.964Z,97718.15
2019-01-28T16:02:14.306Z,97727.28
2019-01-28T16:07:25.103Z,97733.96
2019-01-28T16:12:30.382Z,97729.95
2019-01-28T16:17:36.454Z,97745.25
2019-01-28T16:22:44.652Z,97750.74
2019-01-28T16:27:50.436Z,97749.43
2019-01-28T16:32:59.053Z,97751.98
2019-01-28T16:38:14.055Z,97762.53
2019-01-28T16:43:19.246Z,97761.96
2019-01-28T16:48:24.694Z,97761.55
2019-01-28T16:53:34.069Z,97763.88
2019-01-28T16:58:51.653Z,97769.84
2019-01-28T17:04:09.633Z,97771.55
2019-01-28T17:09:15.599Z,97777.13
2019-01-28T17:14:20.781Z,97794.06
2019-01-28T17:19:31.182Z,97789.88
2019-01-28T17:24:36.640Z,97795.58
2019-01-28T17:29:42.167Z,97799.83
2019-01-28T17:34:47.731Z,97806.93
2019-01-28T17:39:53.280Z,97820.29
2019-01-28T17:44:58.567Z,97821.11
2019-01-28T17:50:04.213Z,97824.32
2019-01-28T17:55:10.692Z,97829.06
2019-01-28T18:00:19.921Z,97827.95
2019-01-28T18:05:26.440Z,97831.34
2019-01-28T18:10:33.433Z,97840.10
2019-01-28T18:15:39.886Z,97850.80
2019-01-28T18:20:52.050Z,97851.81
2019-01-28T18:25:55.248Z,97856.51
2019-01-28T18:31:00.754Z,97865.98
2019-01-28T18:36:06.117Z,97871.48
2019-01-28T18:41:11.590Z,97876.98
2019-01-28T18:46:16.850Z,97879.34
2019-01-28T18:51:21.916Z,97885.16
2019-01-28T18:56:27.084Z,97902.98
2019-01-28T19:01:32.473Z,97900.57
2019-01-28T19:06:56.413Z,97917.67
2019-01-28T19:12:20.952Z,97922.87
2019-01-28T19:17:48.243Z,97935.90
2019-01-28T19:22:53.668Z,97947.58
2019-01-28T19:28:05.994Z,97956.46
2019-01-28T19:33:11.301Z,97967.30
2019-01-28T19:38:17.034Z,97980.07
2019-01-28T19:43:22.216Z,97990.69
2019-01-28T19:48:34.271Z,97998.04
2019-01-28T19:53:41.303Z,97998.67
2019-01-28T19:58:48.712Z,98010.70
2019-01-28T20:03:57.896Z,98014.63
2019-01-28T20:09:14.479Z,98018.70
2019-01-28T20:14:20.763Z,98031.78
2019-01-28T20:19:27.908Z,98042.70
2019-01-28T20:24:35.790Z,98057.67
2019-01-28T20:29:43.779Z,98063.49
2019-01-28T20:34:49.288Z,98064.73
2019-01-28T20:39:54.497Z,98073.63
2019-01-28T20:44:59.752Z,98084.40
2019-01-28T20:50:06.246Z,98084.58
2019-01-28T20:55:11.574Z,98100.28
2019-01-28T21:00:22.000Z,98105.52
2019-01-28T21:05:27.260Z,98122.47
2019-01-28T21:10:32.456Z,98123.52
2019-01-28T21:15:38.084Z,98133.83
2019-01-28T21:20:43.218Z,98147.08
2019-01-28T21:25:48.652Z,98148.13
2019-01-28T21:30:53.817Z,98162.08
2019-01-28T21:36:19.746Z,98171.09
2019-01-28T21:41:24.828Z,98180.08
2019-01-28T21:46:30.405Z,98192.53
2019-01-28T21:51:35.892Z,98206.23
2019-01-28T21:56:41.170Z,98217.77
2019-01-28T22:01:46.330Z,98219.34
2019-01-28T22:06:51.632Z,98232.75
2019-01-28T22:11:59.082Z,98237.50
2019-01-28T22:17:04.121Z,98248.47
2019-01-28T22:22:10.371Z,98253.02
2019-01-28T22:27:15.818Z,98261.70
2019-01-28T22:32:21.734Z,98272.20
2019-01-28T22:37:26.887Z,98279.31
2019-01-28T22:42:32.408Z,98291.63
2019-01-28T22:47:37.512Z,98293.78
2019-01-28T22:52:42.718Z,98306.84
2019-01-28T22:57:52.797Z,98320.24
2019-01-28T23:02:58.966Z,98330.22
2019-01-28T23:08:05.258Z,98336.02
2019-01-28T23:13:12.472Z,98348.91
2019-01-28T23:18:18.146Z,98349.19
2019-01-28T23:23:24.127Z,98351.28
2019-01-28T23:28:30.739Z,98354.19
2019-01-28T23:33:38.884Z,98373.54
2019-01-28T23:38:48.746Z,98381.98
2019-01-28T23:43:56.128Z,98386.66
2019-01-28T23:49:03.608Z,98396.11
2019-01-28T23:54:09.190Z,98412.08
2019-01-28T23:59:14.944Z,98416.79
